Time;durP1;ratioP1;P1;durP2;ratioP2;P2;SDS_P1;SDS_P2;PMS_P1;PMS_P2;Temp;Humidity;BMP_temperature;BMP_pressure;BME280_temperature;BME280_humidity;BME280_pressure;Samples;Min_cycle;Max_cycle;Signal;HPM_P1;HPM_P2
2022/10/09 00:01:16;;;;;;;12.00;7.90;;;;;;;7.89;69.13;100954.92;1675183;85;21607;-72
2022/10/09 00:03:45;;;;;;;12.20;7.72;;;;;;;7.88;69.14;100947.98;1721080;82;21061;-72
2022/10/09 00:06:17;;;;;;;11.08;7.65;;;;;;;7.89;69.13;100948.80;1696818;83;21109;-72
2022/10/09 00:08:43;;;;;;;13.55;8.15;;;;;;;7.88;69.08;100945.33;1715650;81;21033;-72
2022/10/09 00:11:15;;;;;;;11.57;7.78;;;;;;;7.89;69.09;100947.47;1722472;81;21069;-73
2022/10/09 00:13:43;;;;;;;11.78;8.30;;;;;;;7.88;69.12;100944.00;1713664;82;21468;-72
2022/10/09 00:16:12;;;;;;;10.13;7.83;;;;;;;7.87;69.11;100942.91;1716609;83;20974;-72
2022/10/09 00:18:38;;;;;;;13.93;8.20;;;;;;;7.85;69.10;100938.33;1700706;82;20977;-72
2022/10/09 00:21:05;;;;;;;11.00;7.33;;;;;;;7.83;69.20;100934.59;1721985;81;21002;-72
2022/10/09 00:23:32;;;;;;;12.60;7.50;;;;;;;7.83;69.41;100927.94;1706254;83;21831;-72
2022/10/09 00:26:00;;;;;;;10.18;7.03;;;;;;;7.83;69.50;100925.77;1716165;81;21175;-72
2022/10/09 00:28:28;;;;;;;11.65;7.30;;;;;;;7.83;69.53;100921.28;1692351;84;21503;-72
2022/10/09 00:30:56;;;;;;;10.53;7.45;;;;;;;7.84;69.57;100924.23;1724469;81;20948;-72
2022/10/09 00:33:23;;;;;;;10.43;7.08;;;;;;;7.84;69.69;100918.11;1724299;81;21032;-71
2022/10/09 00:35:50;;;;;;;10.78;7.53;;;;;;;7.87;69.82;100920.30;1692879;83;21083;-70
2022/10/09 00:38:16;;;;;;;11.20;7.10;;;;;;;7.88;69.98;100921.39;1717261;81;21249;-72
2022/10/09 00:40:42;;;;;;;10.90;7.30;;;;;;;7.91;70.05;100920.12;1739675;81;21561;-72
2022/10/09 00:43:16;;;;;;;11.15;7.53;;;;;;;7.92;70.10;100917.75;1705287;83;20968;-72
2022/10/09 00:45:53;;;;;;;10.28;7.05;;;;;;;7.93;70.06;100910.89;1719915;81;21041;-70
2022/10/09 00:48:19;;;;;;;8.98;6.53;;;;;;;7.96;69.99;100910.43;1679573;83;21550;-70
2022/10/09 00:50:53;;;;;;;11.50;7.17;;;;;;;7.95;69.94;100902.14;1721051;81;21274;-71
2022/10/09 00:53:21;;;;;;;10.03;6.87;;;;;;;7.95;69.83;100900.00;1734205;81;21042;-71
2022/10/09 00:55:47;;;;;;;9.35;6.78;;;;;;;7.94;69.71;100901.05;1687276;83;21179;-71
2022/10/09 00:58:14;;;;;;;10.13;7.12;;;;;;;7.92;69.59;100894.62;1715818;81;21061;-71
2022/10/09 01:00:40;;;;;;;11.10;6.78;;;;;;;7.89;69.44;100891.61;1707688;82;21546;-71
2022/10/09 01:03:08;;;;;;;13.20;7.60;;;;;;;7.87;69.42;100895.84;1697941;81;21174;-72
2022/10/09 01:06:09;;;;;;;10.90;7.42;;;;;;;7.86;69.39;100898.72;1695352;82;20933;-72
2022/10/09 01:08:56;;;;;;;9.40;6.80;;;;;;;7.85;69.39;100897.11;1695026;81;21124;-72
2022/10/09 01:11:41;;;;;;;11.05;7.17;;;;;;;7.85;69.30;100888.61;1690973;81;21073;-72
2022/10/09 01:14:39;;;;;;;9.88;6.75;;;;;;;7.83;69.18;100892.53;1731652;81;21075;-72
2022/10/09 01:17:11;;;;;;;9.73;6.80;;;;;;;7.79;69.09;100887.39;1715019;81;21612;-72
2022/10/09 01:20:02;;;;;;;8.63;6.62;;;;;;;7.74;69.03;100889.42;1685137;83;20964;-72
2022/10/09 01:23:14;;;;;;;9.53;6.60;;;;;;;7.70;68.99;100888.23;1732984;81;21064;-72
2022/10/09 01:26:21;;;;;;;9.05;5.50;;;;;;;7.66;68.94;100887.08;1713712;83;21061;-72
2022/10/09 01:28:58;;;;;;;9.73;5.60;;;;;;;7.61;68.82;100895.75;1699819;83;21067;-71
2022/10/09 01:31:27;;;;;;;8.83;5.75;;;;;;;7.55;68.76;100891.88;1696616;83;22155;-72
2022/10/09 01:33:59;;;;;;;10.55;5.95;;;;;;;7.50;68.69;100888.55;1730846;81;21049;-72
2022/10/09 01:36:26;;;;;;;7.45;5.30;;;;;;;7.46;68.66;100894.04;1719678;81;21029;-72
2022/10/09 01:39:01;;;;;;;9.58;5.28;;;;;;;7.43;68.72;100887.84;1718114;81;21124;-72
2022/10/09 01:41:31;;;;;;;7.60;4.92;;;;;;;7.39;68.69;100892.00;1716159;81;21191;-72
2022/10/09 01:44:19;;;;;;;7.37;5.08;;;;;;;7.36;68.64;100896.45;1715645;82;21221;-72
2022/10/09 01:47:03;;;;;;;8.73;4.50;;;;;;;7.32;68.62;100900.59;1715707;81;20953;-72
2022/10/09 01:49:40;;;;;;;9.05;4.70;;;;;;;7.27;68.63;100898.11;1715489;81;21673;-72
2022/10/09 01:52:45;;;;;;;6.95;4.50;;;;;;;7.25;68.67;100900.69;1721595;81;21014;-72
2022/10/09 01:55:44;;;;;;;6.60;4.37;;;;;;;7.23;68.70;100903.56;1719679;81;21030;-72
2022/10/09 01:58:38;;;;;;;7.95;5.22;;;;;;;7.21;68.74;100896.88;1703553;81;21911;-72
2022/10/09 02:01:34;;;;;;;7.55;4.65;;;;;;;7.19;68.74;100897.09;1715534;83;21045;-72
2022/10/09 02:04:11;;;;;;;7.72;4.35;;;;;;;7.15;68.74;100897.25;1732697;81;21092;-72
2022/10/09 02:06:45;;;;;;;7.40;4.78;;;;;;;7.07;68.77;100894.89;1703357;82;21017;-72
2022/10/09 02:09:15;;;;;;;7.25;4.80;;;;;;;7.02;68.80;100894.25;1729021;81;21112;-72
2022/10/09 02:11:46;;;;;;;6.05;4.50;;;;;;;6.96;68.80;100891.69;1716248;81;21093;-72
2022/10/09 02:14:13;;;;;;;8.03;4.80;;;;;;;6.91;68.84;100887.55;1713759;81;21582;-72
2022/10/09 02:16:47;;;;;;;9.38;5.15;;;;;;;6.86;68.91;100883.45;1722323;81;21088;-72
2022/10/09 02:19:31;;;;;;;7.78;4.90;;;;;;;6.83;69.04;100886.55;1725373;81;21500;-72
2022/10/09 02:22:15;;;;;;;10.25;5.65;;;;;;;6.82;69.11;100885.75;1715914;81;21037;-72
2022/10/09 02:24:43;;;;;;;10.20;5.67;;;;;;;6.79;69.11;100886.19;1709678;81;22531;-70
2022/10/09 02:27:10;;;;;;;11.20;5.97;;;;;;;6.70;69.18;100885.67;1715532;81;20953;-71
2022/10/09 02:29:40;;;;;;;7.60;5.65;;;;;;;6.63;69.24;100892.10;1699644;83;21128;-71
2022/10/09 02:32:09;;;;;;;8.95;6.60;;;;;;;6.59;69.41;100895.72;1709057;81;21013;-71
2022/10/09 02:34:36;;;;;;;8.45;6.05;;;;;;;6.60;69.60;100888.05;1740455;81;21014;-71
2022/10/09 02:37:03;;;;;;;9.05;5.97;;;;;;;6.64;69.71;100891.87;1745135;81;21157;-72
2022/10/09 02:39:30;;;;;;;7.25;5.95;;;;;;;6.65;69.75;100889.53;1719555;81;21002;-71
2022/10/09 02:41:57;;;;;;;10.48;6.53;;;;;;;6.66;69.70;100895.64;1716919;81;21072;-71
2022/10/09 02:44:24;;;;;;;13.43;6.95;;;;;;;6.59;69.70;100895.72;1717410;83;21128;-71
2022/10/09 02:46:51;;;;;;;11.78;6.45;;;;;;;6.60;69.89;100894.68;1735598;81;21488;-73
2022/10/09 02:49:17;;;;;;;9.58;7.03;;;;;;;6.63;70.00;100891.58;1734818;81;21149;-71
2022/10/09 02:51:44;;;;;;;11.12;7.08;;;;;;;6.69;70.14;100893.88;1739455;81;21018;-71
2022/10/09 02:54:10;;;;;;;12.23;6.90;;;;;;;6.74;70.34;100890.82;1735309;81;21006;-71
2022/10/09 02:56:37;;;;;;;10.13;5.83;;;;;;;6.78;70.53;100888.04;1717886;81;21017;-71
2022/10/09 02:59:04;;;;;;;8.85;5.87;;;;;;;6.83;70.65;100883.38;1738125;81;20990;-71
2022/10/09 03:01:31;;;;;;;9.28;6.25;;;;;;;6.87;70.60;100879.75;1721652;82;21910;-71
2022/10/09 03:03:57;;;;;;;9.08;6.20;;;;;;;6.90;70.50;100881.95;1746356;81;20994;-71
2022/10/09 03:06:26;;;;;;;9.10;6.28;;;;;;;6.92;70.35;100871.94;1730190;81;21524;-71
2022/10/09 03:08:53;;;;;;;8.78;6.03;;;;;;;6.90;70.23;100875.32;1716857;81;21030;-71
2022/10/09 03:11:22;;;;;;;10.45;6.40;;;;;;;6.87;70.14;100873.11;1730929;81;21014;-71
2022/10/09 03:13:49;;;;;;;9.48;5.78;;;;;;;6.81;69.99;100870.34;1746339;81;21110;-71
2022/10/09 03:16:20;;;;;;;8.98;6.22;;;;;;;6.75;69.82;100870.42;1721999;81;20986;-73
2022/10/09 03:18:49;;;;;;;8.23;5.70;;;;;;;6.66;69.79;100867.77;1738966;81;21002;-73
2022/10/09 03:21:24;;;;;;;8.25;5.45;;;;;;;6.62;69.76;100859.97;1688332;83;21032;-73
2022/10/09 03:23:51;;;;;;;6.47;4.95;;;;;;;6.60;69.74;100860.70;1740148;81;21104;-72
2022/10/09 03:26:22;;;;;;;7.35;5.45;;;;;;;6.57;69.70;100861.42;1717292;83;20984;-73
2022/10/09 03:28:50;;;;;;;6.53;4.60;;;;;;;6.56;69.74;100856.36;1734086;81;21053;-73
2022/10/09 03:31:21;;;;;;;7.97;5.53;;;;;;;6.50;69.67;100863.35;1714873;83;21095;-73
2022/10/09 03:33:47;;;;;;;8.33;5.67;;;;;;;6.40;69.70;100852.97;1721292;81;21049;-73
2022/10/09 03:36:14;;;;;;;9.95;6.33;;;;;;;6.31;69.82;100861.21;1714161;82;21071;-73
2022/10/09 03:38:40;;;;;;;9.38;6.17;;;;;;;6.27;69.96;100854.73;1717632;81;21831;-72
2022/10/09 03:41:07;;;;;;;9.38;6.25;;;;;;;6.27;70.07;100848.10;1741061;81;21092;-73
2022/10/09 03:43:34;;;;;;;8.20;6.08;;;;;;;6.30;70.09;100845.53;1701561;83;21000;-73
2022/10/09 03:46:07;;;;;;;8.40;5.85;;;;;;;6.31;70.09;100835.20;1715079;83;21057;-73
2022/10/09 03:48:35;;;;;;;9.23;6.05;;;;;;;6.32;70.09;100832.87;1686236;85;21562;-73
2022/10/09 03:51:03;;;;;;;7.58;5.92;;;;;;;6.32;70.13;100836.84;1718137;81;21901;-73
2022/10/09 03:53:29;;;;;;;8.95;6.05;;;;;;;6.31;70.14;100839.99;1695949;83;21043;-73
2022/10/09 03:55:56;;;;;;;8.10;5.42;;;;;;;6.31;70.16;100839.19;1716823;81;21155;-73
2022/10/09 03:58:23;;;;;;;8.10;6.00;;;;;;;6.31;70.21;100846.63;1719212;81;21408;-73
2022/10/09 04:00:51;;;;;;;8.68;5.83;;;;;;;6.33;70.20;100847.22;1720727;81;21558;-73
2022/10/09 04:03:18;;;;;;;8.88;5.92;;;;;;;6.33;70.21;100847.22;1726718;81;21219;-73
2022/10/09 04:05:44;;;;;;;7.08;5.92;;;;;;;6.37;70.21;100853.41;1715801;83;20993;-73
2022/10/09 04:08:12;;;;;;;8.88;6.05;;;;;;;6.40;70.28;100852.97;1728731;81;21080;-73
2022/10/09 04:10:38;;;;;;;8.75;7.22;;;;;;;6.44;70.23;100858.92;1713338;81;21027;-73
2022/10/09 04:13:05;;;;;;;9.23;6.85;;;;;;;6.46;70.21;100848.11;1732169;81;21038;-73
2022/10/09 04:15:34;;;;;;;10.10;7.25;;;;;;;6.50;70.25;100852.73;1706875;83;21063;-73
2022/10/09 04:18:00;;;;;;;10.45;7.10;;;;;;;6.52;70.26;100858.64;1718715;81;21064;-73
2022/10/09 04:20:27;;;;;;;10.05;6.97;;;;;;;6.56;70.38;100852.38;1685876;85;21547;-72
2022/10/09 04:22:53;;;;;;;9.28;6.65;;;;;;;6.62;70.46;100850.16;1716450;81;21050;-72
2022/10/09 04:25:20;;;;;;;21.07;9.48;;;;;;;6.65;70.45;100851.04;1717124;82;20984;-72
2022/10/09 04:27:46;;;;;;;17.92;10.10;;;;;;;6.69;70.44;100845.57;1719955;82;21533;-72
2022/10/09 04:30:13;;;;;;;14.58;8.78;;;;;;;6.74;70.60;100847.55;1716596;83;21043;-73
2022/10/09 04:32:40;;;;;;;12.55;7.67;;;;;;;6.79;70.73;100851.16;1702994;81;21565;-73
2022/10/09 04:35:08;;;;;;;18.23;8.65;;;;;;;6.87;70.73;100847.89;1717027;82;21015;-73
2022/10/09 04:37:35;;;;;;;14.47;9.35;;;;;;;6.88;70.63;100850.83;1718406;81;21196;-72
2022/10/09 04:40:04;;;;;;;14.68;9.05;;;;;;;6.88;70.60;100846.35;1712390;83;21259;-71
2022/10/09 04:42:31;;;;;;;16.17;9.60;;;;;;;6.93;70.63;100841.68;1713561;81;21025;-70
2022/10/09 04:44:57;;;;;;;14.60;8.98;;;;;;;6.96;70.56;100842.03;1669983;85;21603;-71
2022/10/09 04:47:24;;;;;;;18.07;10.25;;;;;;;7.00;70.57;100845.85;1718809;81;21085;-71
2022/10/09 04:49:51;;;;;;;17.77;9.53;;;;;;;7.07;70.56;100841.77;1732105;81;21150;-71
2022/10/09 04:52:18;;;;;;;16.97;9.75;;;;;;;7.16;70.57;100840.94;1723166;81;21129;-72
2022/10/09 04:54:45;;;;;;;17.20;10.53;;;;;;;7.21;70.65;100841.09;1702722;81;21046;-71
2022/10/09 04:57:12;;;;;;;24.10;9.70;;;;;;;7.25;70.74;100843.05;1727179;81;20977;-72
2022/10/09 04:59:38;;;;;;;25.88;9.68;;;;;;;7.27;70.84;100846.30;1719530;81;20954;-72
2022/10/09 05:02:05;;;;;;;38.48;10.78;;;;;;;7.31;71.02;100851.16;1730405;81;21013;-72
2022/10/09 05:04:32;;;;;;;42.08;11.05;;;;;;;7.40;71.29;100849.77;1728434;81;21168;-72
2022/10/09 05:06:59;;;;;;;22.80;10.93;;;;;;;7.54;71.50;100853.86;1730349;81;21056;-72
2022/10/09 05:09:26;;;;;;;27.55;10.78;;;;;;;7.66;71.58;100852.52;1747674;81;21061;-74
2022/10/09 05:11:53;;;;;;;13.32;9.35;;;;;;;7.68;71.69;100848.59;1723671;81;21005;-74
2022/10/09 05:14:21;;;;;;;14.68;9.48;;;;;;;7.72;71.83;100848.95;1727998;81;21029;-72
2022/10/09 05:16:51;;;;;;;30.32;10.35;;;;;;;7.72;72.05;100852.41;1727836;81;21248;-73
2022/10/09 05:19:18;;;;;;;12.68;8.75;;;;;;;7.75;72.29;100859.92;1710669;81;21207;-72
2022/10/09 05:21:44;;;;;;;15.43;8.53;;;;;;;7.80;72.52;100855.27;1723228;81;21021;-73
2022/10/09 05:24:11;;;;;;;11.83;7.95;;;;;;;7.87;72.70;100857.81;1724198;81;21100;-73
2022/10/09 05:26:37;;;;;;;13.10;8.00;;;;;;;7.91;72.84;100851.78;1723980;81;20998;-72
2022/10/09 05:29:04;;;;;;;12.20;7.83;;;;;;;7.96;72.92;100850.58;1751188;81;21210;-72
2022/10/09 05:31:31;;;;;;;11.03;8.40;;;;;;;8.02;73.04;100852.81;1737349;81;21069;-72
2022/10/09 05:33:58;;;;;;;11.03;8.03;;;;;;;8.10;73.17;100850.34;1733311;81;21010;-73
2022/10/09 05:36:26;;;;;;;7.75;6.87;;;;;;;8.21;73.29;100848.98;1721136;81;20998;-73
2022/10/09 05:38:55;;;;;;;9.20;7.70;;;;;;;8.32;73.29;100855.84;1720010;81;21914;-74
2022/10/09 05:41:22;;;;;;;10.08;7.80;;;;;;;8.43;73.37;100859.05;1706304;81;21121;-71
2022/10/09 05:43:49;;;;;;;9.20;8.10;;;;;;;8.52;73.43;100858.14;1724809;81;21005;-72
2022/10/09 05:46:24;;;;;;;10.08;8.45;;;;;;;8.68;73.64;100856.06;1720588;81;21031;-72
2022/10/09 05:48:55;;;;;;;11.68;8.98;;;;;;;8.90;73.77;100853.03;1710596;82;21241;-72
2022/10/09 05:51:30;;;;;;;10.55;8.65;;;;;;;9.13;73.84;100856.11;1715460;83;21029;-73
2022/10/09 05:54:01;;;;;;;9.83;8.60;;;;;;;9.33;73.92;100850.84;1721513;81;21231;-72
2022/10/09 05:56:31;;;;;;;11.35;8.93;;;;;;;9.57;73.96;100851.49;1687685;83;21051;-72
2022/10/09 05:59:06;;;;;;;12.73;10.13;;;;;;;9.80;73.99;100853.98;1717286;81;20988;-73
2022/10/09 06:01:36;;;;;;;10.65;9.40;;;;;;;10.01;73.92;100855.10;1714942;82;21401;-73
2022/10/09 06:04:03;;;;;;;12.63;10.08;;;;;;;10.22;73.89;100862.05;1695284;83;21498;-73
2022/10/09 06:06:32;;;;;;;10.45;8.78;;;;;;;10.40;73.83;100863.13;1716819;82;21221;-72
2022/10/09 06:08:59;;;;;;;12.65;9.68;;;;;;;10.57;73.70;100860.39;1745922;81;21025;-72
2022/10/09 06:11:31;;;;;;;13.22;9.70;;;;;;;10.70;73.52;100861.34;1681079;83;22509;-73
2022/10/09 06:14:01;;;;;;;10.20;9.18;;;;;;;10.85;73.49;100856.68;1717322;81;21161;-73
2022/10/09 06:16:31;;;;;;;14.47;9.48;;;;;;;11.03;73.39;100860.36;1744339;81;21052;-71
2022/10/09 06:18:59;;;;;;;12.70;9.50;;;;;;;11.22;73.26;100864.82;1745462;81;21037;-73
2022/10/09 06:21:26;;;;;;;12.68;9.25;;;;;;;11.38;73.05;100857.72;1662110;83;20986;-71
2022/10/09 06:23:56;;;;;;;12.78;10.45;;;;;;;11.55;72.89;100854.94;1680894;83;21660;-71
2022/10/09 06:26:27;;;;;;;12.68;9.60;;;;;;;11.69;72.65;100864.66;1711005;81;21426;-72
2022/10/09 06:28:56;;;;;;;12.37;9.85;;;;;;;11.81;72.53;100862.59;1716402;81;21072;-70
2022/10/09 06:31:25;;;;;;;13.13;9.48;;;;;;;11.96;72.41;100861.92;1696115;82;21146;-72
2022/10/09 06:33:52;;;;;;;12.35;10.05;;;;;;;12.11;72.27;100860.69;1728067;81;21085;-71
2022/10/09 06:36:22;;;;;;;14.30;10.25;;;;;;;12.28;71.98;100855.14;1700082;84;21534;-71
2022/10/09 06:38:49;;;;;;;14.40;9.97;;;;;;;12.41;71.61;100856.01;1727059;81;21006;-71
2022/10/09 06:41:21;;;;;;;12.27;9.37;;;;;;;12.55;71.26;100859.55;1740581;81;22032;-71
2022/10/09 06:43:52;;;;;;;12.23;9.37;;;;;;;12.72;70.90;100857.98;1750892;81;21845;-72
2022/10/09 06:46:21;;;;;;;12.82;9.15;;;;;;;12.81;70.33;100853.73;1712022;81;21750;-72
2022/10/09 06:48:48;;;;;;;11.57;9.07;;;;;;;12.92;69.69;100851.33;1743279;81;20994;-71
2022/10/09 06:51:17;;;;;;;12.50;8.97;;;;;;;13.03;69.12;100849.47;1753356;81;21281;-70
2022/10/09 06:53:47;;;;;;;12.23;8.93;;;;;;;13.08;68.46;100843.58;1747692;81;21165;-72
2022/10/09 06:56:16;;;;;;;14.87;9.23;;;;;;;13.18;68.03;100844.67;1753861;81;21300;-71
2022/10/09 06:58:42;;;;;;;12.43;8.83;;;;;;;13.28;67.64;100848.73;1743007;81;21301;-70
2022/10/09 07:01:13;;;;;;;12.20;8.90;;;;;;;13.41;67.15;100850.08;1736037;81;21262;-70
2022/10/09 07:03:42;;;;;;;12.83;9.17;;;;;;;13.50;66.62;100845.25;1744798;81;21193;-71
2022/10/09 07:06:18;;;;;;;11.37;8.30;;;;;;;13.60;66.29;100847.13;1739272;81;21223;-72
2022/10/09 07:08:50;;;;;;;13.57;9.47;;;;;;;13.70;65.91;100853.02;1716768;82;21298;-72
2022/10/09 07:11:22;;;;;;;11.13;9.10;;;;;;;13.76;65.60;100862.68;1714377;81;21351;-72
2022/10/09 07:13:55;;;;;;;13.40;9.67;;;;;;;13.82;65.20;100857.03;1705692;82;21132;-71
2022/10/09 07:16:27;;;;;;;14.40;9.63;;;;;;;13.93;64.97;100861.04;1719936;81;21284;-72
2022/10/09 07:18:56;;;;;;;11.83;9.30;;;;;;;14.04;64.66;100857.24;1693542;83;21398;-72
2022/10/09 07:21:24;;;;;;;14.97;8.90;;;;;;;14.07;64.16;100852.12;1729030;81;21555;-71
2022/10/09 07:23:52;;;;;;;12.90;9.03;;;;;;;14.12;63.94;100857.25;1702758;83;21234;-72
2022/10/09 07:26:26;;;;;;;11.80;9.27;;;;;;;14.16;63.51;100847.55;1682809;83;21306;-72
2022/10/09 07:28:53;;;;;;;11.47;8.70;;;;;;;14.22;63.46;100841.89;1689487;84;21837;-72
2022/10/09 07:31:21;;;;;;;11.03;8.63;;;;;;;14.31;63.16;100842.94;1716585;82;21340;-71
2022/10/09 07:33:50;;;;;;;11.60;8.40;;;;;;;14.34;63.20;100836.19;1728749;83;21603;-70
2022/10/09 07:36:17;;;;;;;11.57;9.30;;;;;;;14.41;62.94;100835.89;1728784;83;21263;-70
2022/10/09 07:38:51;;;;;;;14.07;9.13;;;;;;;14.45;62.81;100841.00;1728976;82;21318;-70
2022/10/09 07:41:17;;;;;;;12.37;9.10;;;;;;;14.58;62.86;100840.95;1728143;82;21455;-71
2022/10/09 07:43:44;;;;;;;14.53;9.37;;;;;;;14.73;62.83;100834.95;1717252;83;21414;-71
2022/10/09 07:46:16;;;;;;;12.80;8.90;;;;;;;14.91;62.74;100829.48;1717059;83;21338;-71
2022/10/09 07:48:42;;;;;;;11.33;8.63;;;;;;;15.13;62.28;100828.24;1717771;83;21363;-71
2022/10/09 07:51:16;;;;;;;11.63;8.43;;;;;;;15.27;61.78;100823.84;1719344;83;21493;-72
2022/10/09 07:53:43;;;;;;;12.93;8.67;;;;;;;15.52;60.91;100824.70;1718448;83;21563;-72
2022/10/09 07:56:16;;;;;;;13.47;8.77;;;;;;;15.59;60.63;100829.20;1705543;83;21774;-71
2022/10/09 07:58:53;;;;;;;12.67;7.93;;;;;;;15.59;60.63;100829.20;1717171;82;22222;-71
2022/10/09 08:01:20;;;;;;;11.60;8.17;;;;;;;15.69;60.39;100822.41;1716239;82;21480;-73
2022/10/09 08:03:47;;;;;;;11.87;8.60;;;;;;;15.75;59.94;100820.47;1716323;83;21506;-71
2022/10/09 08:06:14;;;;;;;11.80;8.10;;;;;;;15.84;59.69;100825.50;1717653;82;21755;-71
2022/10/09 08:08:41;;;;;;;11.07;8.13;;;;;;;15.97;59.33;100819.44;1715333;82;21728;-71
2022/10/09 08:11:14;;;;;;;10.27;6.97;;;;;;;16.12;59.06;100814.41;1716142;83;21707;-72
2022/10/09 08:13:42;;;;;;;9.40;7.27;;;;;;;16.28;58.00;100817.17;1688379;84;21728;-71
2022/10/09 08:16:10;;;;;;;10.97;7.17;;;;;;;16.42;57.81;100817.29;1703651;83;21669;-72
2022/10/09 08:18:36;;;;;;;11.00;7.10;;;;;;;16.55;57.15;100811.18;1716485;83;21750;-72
2022/10/09 08:21:10;;;;;;;10.93;7.30;;;;;;;16.62;56.44;100806.23;1686301;85;21800;-72
2022/10/09 08:23:37;;;;;;;12.10;7.23;;;;;;;16.68;56.52;100806.14;1716914;83;21692;-72
2022/10/09 08:26:04;;;;;;;11.73;6.87;;;;;;;16.79;56.01;100805.74;1717187;83;21443;-72
2022/10/09 08:28:31;;;;;;;10.27;6.60;;;;;;;16.89;56.09;100799.39;1710827;83;20973;-72
2022/10/09 08:30:58;;;;;;;11.53;7.17;;;;;;;16.97;55.52;100804.11;1686279;84;21071;-72
2022/10/09 08:33:25;;;;;;;9.43;6.97;;;;;;;16.99;55.51;100801.94;1717238;81;21064;-72
2022/10/09 08:35:53;;;;;;;9.53;6.57;;;;;;;17.07;55.51;100794.50;1716616;83;21190;-72
2022/10/09 08:38:21;;;;;;;11.03;6.50;;;;;;;17.17;55.28;100791.39;1695235;83;21052;-72
2022/10/09 08:41:06;;;;;;;8.70;6.10;;;;;;;17.30;55.03;100788.73;1717531;83;20995;-71
2022/10/09 08:43:40;;;;;;;12.00;6.97;;;;;;;17.42;54.67;100786.91;1715994;83;21104;-71
2022/10/09 08:46:28;;;;;;;11.90;7.20;;;;;;;17.49;54.23;100784.62;1675765;85;21007;-71
2022/10/09 08:48:55;;;;;;;9.50;6.57;;;;;;;17.58;54.06;100774.74;1711709;83;21899;-71
2022/10/09 08:51:28;;;;;;;8.13;5.83;;;;;;;17.74;53.82;100782.02;1686172;85;21158;-70
2022/10/09 08:54:06;;;;;;;9.57;6.47;;;;;;;17.83;53.63;100780.78;1715853;83;21041;-70
2022/10/09 08:56:33;;;;;;;11.13;6.33;;;;;;;17.88;53.48;100782.59;1690482;83;21085;-72
2022/10/09 08:59:00;;;;;;;8.57;6.50;;;;;;;17.97;53.29;100781.59;1716547;82;21642;-72
2022/10/09 09:01:45;;;;;;;10.13;6.13;;;;;;;18.06;53.21;100784.38;1717291;83;21831;-71
2022/10/09 09:04:22;;;;;;;8.43;6.10;;;;;;;18.16;53.26;100773.91;1716015;83;20855;-73
2022/10/09 09:07:18;;;;;;;10.37;6.63;;;;;;;18.31;53.09;100769.54;1717386;83;21087;-72
2022/10/09 09:10:02;;;;;;;10.77;6.47;;;;;;;18.45;52.29;100764.89;1681051;83;21110;-71
2022/10/09 09:12:51;;;;;;;9.43;5.83;;;;;;;18.53;51.45;100766.09;1666173;85;20966;-72
2022/10/09 09:15:45;;;;;;;8.33;5.67;;;;;;;18.50;51.31;100751.27;1689054;85;21894;-70
2022/10/09 09:18:43;;;;;;;9.90;5.80;;;;;;;18.56;51.42;100752.48;1688741;84;21493;-71
2022/10/09 09:21:21;;;;;;;7.83;5.53;;;;;;;18.58;51.27;100744.88;1691518;83;20976;-71
2022/10/09 09:23:47;;;;;;;12.50;6.60;;;;;;;18.64;50.92;100739.59;1717562;83;21021;-72
2022/10/09 09:26:18;;;;;;;7.10;5.53;;;;;;;18.67;51.15;100732.22;1717507;83;21610;-72
2022/10/09 09:28:45;;;;;;;7.93;5.53;;;;;;;18.78;51.08;100729.54;1717575;83;21552;-71
2022/10/09 09:31:27;;;;;;;7.77;5.60;;;;;;;18.94;50.59;100742.15;1716653;83;21040;-72
2022/10/09 09:34:16;;;;;;;8.17;5.50;;;;;;;19.05;50.17;100750.28;1717233;83;21028;-72
2022/10/09 09:36:53;;;;;;;9.50;6.20;;;;;;;19.20;50.01;100751.79;1687119;84;21048;-71
2022/10/09 09:39:22;;;;;;;10.70;5.70;;;;;;;19.32;49.90;100755.29;1716824;83;21682;-72
2022/10/09 09:41:49;;;;;;;10.70;5.70;;;;;;;19.40;48.89;100759.94;1716970;83;21134;-72
2022/10/09 09:44:15;;;;;;;10.67;5.47;;;;;;;19.39;47.72;100761.06;1716831;83;21068;-72
2022/10/09 09:46:43;;;;;;;9.50;5.23;;;;;;;19.27;47.88;100760.83;1717536;83;21014;-72
2022/10/09 09:49:19;;;;;;;9.27;5.23;;;;;;;19.16;47.79;100759.73;1716181;83;21147;-71
2022/10/09 09:51:47;;;;;;;9.80;4.87;;;;;;;19.09;47.86;100755.87;1716806;82;21431;-72
2022/10/09 09:54:23;;;;;;;8.57;5.17;;;;;;;19.11;47.99;100759.84;1716532;83;22313;-72
2022/10/09 09:56:51;;;;;;;9.93;4.50;;;;;;;19.23;48.17;100762.00;1717392;83;20949;-71
2022/10/09 09:59:32;;;;;;;6.60;4.30;;;;;;;19.38;47.08;100753.48;1716549;83;21140;-71
2022/10/09 10:02:05;;;;;;;8.53;4.20;;;;;;;19.51;46.38;100751.77;1659068;85;21055;-72
2022/10/09 10:04:31;;;;;;;6.07;4.00;;;;;;;19.62;45.33;100741.48;1688319;84;21136;-72
2022/10/09 10:06:58;;;;;;;11.07;4.37;;;;;;;19.74;45.11;100743.61;1714048;82;21122;-72
2022/10/09 10:09:26;;;;;;;7.30;3.83;;;;;;;19.85;44.81;100744.94;1716935;83;21068;-72
2022/10/09 10:12:02;;;;;;;6.27;3.50;;;;;;;19.96;44.12;100738.66;1716923;82;21511;-71
2022/10/09 10:14:30;;;;;;;9.00;3.93;;;;;;;20.01;43.26;100738.52;1717365;83;20974;-72
2022/10/09 10:16:58;;;;;;;7.07;3.10;;;;;;;20.07;42.28;100738.59;1687021;85;21788;-73
2022/10/09 10:19:27;;;;;;;8.80;4.60;;;;;;;20.08;40.75;100729.36;1716844;83;21141;-72
2022/10/09 10:22:07;;;;;;;6.43;3.40;;;;;;;20.10;40.57;100727.11;1716817;83;21007;-73
2022/10/09 10:24:40;;;;;;;11.13;7.60;;;;;;;20.13;40.42;100734.61;1716687;83;21017;-73
2022/10/09 10:27:24;;;;;;;11.13;7.27;;;;;;;20.15;40.41;100729.69;1717508;83;21488;-73
2022/10/09 10:29:55;;;;;;;6.80;4.03;;;;;;;20.21;40.58;100728.42;1717242;83;21041;-71
2022/10/09 10:32:43;;;;;;;6.07;3.03;;;;;;;20.32;40.57;100721.55;1714835;83;21760;-73
2022/10/09 10:35:28;;;;;;;6.63;3.07;;;;;;;20.46;41.06;100726.82;1710203;83;21093;-71
2022/10/09 10:38:12;;;;;;;5.47;3.47;;;;;;;20.67;40.92;100731.66;1717687;82;21486;-73
2022/10/09 10:40:47;;;;;;;5.53;3.67;;;;;;;20.71;38.98;100723.90;1716305;82;21033;-73
2022/10/09 10:43:30;;;;;;;5.63;3.17;;;;;;;20.71;39.83;100721.19;1659670;86;21051;-72
2022/10/09 10:46:31;;;;;;;5.97;2.90;;;;;;;20.81;39.84;100722.20;1705155;83;21149;-72
2022/10/09 10:48:58;;;;;;;7.53;3.60;;;;;;;20.93;39.35;100712.06;1716804;83;21067;-72
2022/10/09 10:51:56;;;;;;;5.43;2.90;;;;;;;21.04;38.99;100705.16;1716828;82;21093;-72
2022/10/09 10:54:38;;;;;;;6.27;3.10;;;;;;;21.07;38.22;100709.14;1645360;86;21055;-72
2022/10/09 10:57:56;;;;;;;5.42;2.58;;;;;;;21.13;37.39;100705.14;1696201;83;21025;-72
2022/10/09 11:00:22;;;;;;;4.80;2.73;;;;;;;21.18;38.01;100697.36;1715994;83;21269;-73
2022/10/09 11:03:19;;;;;;;5.60;2.53;;;;;;;21.35;38.22;100692.45;1688454;85;20962;-73
2022/10/09 11:06:05;;;;;;;4.43;2.80;;;;;;;21.50;38.27;100685.13;1663649;85;21024;-71
2022/10/09 11:08:57;;;;;;;5.67;3.00;;;;;;;21.49;37.08;100683.53;1717254;83;21002;-74
2022/10/09 11:11:41;;;;;;;5.93;2.83;;;;;;;21.39;37.57;100683.88;1716573;83;21448;-72
2022/10/09 11:14:41;;;;;;;5.33;2.83;;;;;;;21.39;37.88;100686.59;1717162;83;21109;-72
2022/10/09 11:17:31;;;;;;;5.97;3.20;;;;;;;21.29;37.35;100687.19;1686743;85;21020;-72
2022/10/09 11:20:17;;;;;;;6.50;3.42;;;;;;;21.20;37.74;100683.70;1717107;83;21081;-71
2022/10/09 11:23:04;;;;;;;6.60;3.40;;;;;;;21.06;38.34;100675.77;1724903;83;21409;-71
2022/10/09 11:25:39;;;;;;;7.57;3.37;;;;;;;21.02;38.92;100674.00;1687196;84;21067;-72
2022/10/09 11:28:14;;;;;;;5.43;3.00;;;;;;;20.95;39.27;100671.78;1716870;83;21655;-72
2022/10/09 11:31:01;;;;;;;7.03;3.30;;;;;;;20.93;39.45;100672.69;1716104;83;21135;-72
2022/10/09 11:33:43;;;;;;;6.57;3.30;;;;;;;20.90;39.50;100676.61;1717381;83;21150;-72
2022/10/09 11:36:15;;;;;;;6.03;3.47;;;;;;;20.80;39.62;100666.89;1716282;83;21030;-72
2022/10/09 11:38:50;;;;;;;7.10;3.80;;;;;;;20.73;40.04;100671.99;1717528;83;20953;-72
2022/10/09 11:41:16;;;;;;;6.87;3.67;;;;;;;20.69;40.27;100669.12;1717029;83;21109;-72
2022/10/09 11:44:33;;;;;;;6.80;3.70;;;;;;;20.65;40.52;100677.68;1687337;85;20968;-72
2022/10/09 11:47:24;;;;;;;6.83;4.00;;;;;;;20.63;40.99;100685.91;1713842;83;21096;-72
2022/10/09 11:50:04;;;;;;;8.53;4.03;;;;;;;20.61;41.21;100682.95;1687437;85;21547;-71